createdAt,value
2019-05-26T00:00:47.552Z,1010.25
2019-05-26T00:01:57.259Z,1010.27
2019-05-26T00:03:07.268Z,1010.21
2019-05-26T00:04:17.328Z,1010.26
2019-05-26T00:05:27.332Z,1010.25
2019-05-26T00:06:37.292Z,1010.24
2019-05-26T00:07:46.755Z,1010.24
2019-05-26T00:08:56.716Z,1010.17
2019-05-26T00:10:06.204Z,1010.14
2019-05-26T00:11:16.387Z,1010.12
2019-05-26T00:12:26.117Z,1010.12
2019-05-26T00:13:36.079Z,1010.09
2019-05-26T00:14:45.801Z,1010.12
2019-05-26T00:15:55.494Z,1010.08
2019-05-26T00:17:05.226Z,1010.06
2019-05-26T00:18:15.201Z,1010.04
2019-05-26T00:19:24.660Z,1010.06
2019-05-26T00:20:34.631Z,1010.08
2019-05-26T00:21:44.096Z,1010.06
2019-05-26T00:22:54.052Z,1010.05
2019-05-26T00:24:03.759Z,1010.03
2019-05-26T00:25:13.711Z,1010.01
2019-05-26T00:26:23.414Z,1010.05
2019-05-26T00:27:33.368Z,1010.02
2019-05-26T00:28:43.426Z,1010
2019-05-26T00:29:53.432Z,1010.01
2019-05-26T00:31:03.406Z,1009.99
2019-05-26T00:32:13.361Z,1009.94
2019-05-26T00:33:23.326Z,1009.97
2019-05-26T00:34:32.770Z,1009.94
2019-05-26T00:35:42.720Z,1009.98
2019-05-26T00:36:52.681Z,1009.92
2019-05-26T00:38:02.677Z,1009.94
2019-05-26T00:39:12.626Z,1009.9
2019-05-26T00:40:22.584Z,1009.92
2019-05-26T00:41:31.781Z,1009.92
2019-05-26T00:42:41.735Z,1009.91
2019-05-26T00:43:51.664Z,1009.87
2019-05-26T00:45:01.369Z,1009.88
2019-05-26T00:46:11.326Z,1009.86
2019-05-26T00:47:21.287Z,1009.87
2019-05-26T00:48:30.734Z,1009.87
2019-05-26T00:49:40.474Z,1009.89
2019-05-26T00:50:50.194Z,1009.87
2019-05-26T00:52:00.135Z,1009.84
2019-05-26T00:53:10.116Z,1009.78
2019-05-26T00:54:20.088Z,1009.78
2019-05-26T00:55:29.780Z,1009.79
2019-05-26T00:56:39.743Z,1009.78
2019-05-26T00:57:49.770Z,1009.8
2019-05-26T00:58:59.722Z,1009.8
2019-05-26T01:00:09.431Z,1009.77
2019-05-26T01:01:19.393Z,1009.78
2019-05-26T01:02:29.350Z,1009.78
2019-05-26T01:03:39.295Z,1009.8
2019-05-26T01:04:48.985Z,1009.78
2019-05-26T01:05:58.683Z,1009.75
2019-05-26T01:07:08.142Z,1009.76
2019-05-26T01:08:17.614Z,1009.74
2019-05-26T01:09:27.596Z,1009.72
2019-05-26T01:10:37.060Z,1009.75
2019-05-26T01:11:47.036Z,1009.78
2019-05-26T01:12:56.974Z,1009.8
2019-05-26T01:14:06.683Z,1009.77
2019-05-26T01:15:16.646Z,1009.8
2019-05-26T01:16:26.643Z,1009.83
2019-05-26T01:17:36.608Z,1009.79
2019-05-26T01:18:46.571Z,1009.8
2019-05-26T01:19:56.532Z,1009.88
2019-05-26T01:21:06.296Z,1009.82
2019-05-26T01:22:16.009Z,1009.86
2019-05-26T01:23:25.725Z,1009.88
2019-05-26T01:24:35.435Z,1009.87
2019-05-26T01:25:45.143Z,1009.8
2019-05-26T01:26:55.106Z,1009.78
2019-05-26T01:28:04.821Z,1009.84
2019-05-26T01:29:14.526Z,1009.83
2019-05-26T01:30:24.502Z,1009.83
2019-05-26T01:31:34.464Z,1009.81
2019-05-26T01:32:44.044Z,1009.83
2019-05-26T01:33:53.992Z,1009.84
2019-05-26T01:35:03.966Z,1009.82
2019-05-26T01:36:13.935Z,1009.78
2019-05-26T01:37:23.878Z,1009.82
2019-05-26T01:38:33.832Z,1009.85
2019-05-26T01:39:43.781Z,1009.82
2019-05-26T01:40:53.511Z,1009.84
2019-05-26T01:42:02.948Z,1009.86
2019-05-26T01:43:12.741Z,1009.82
2019-05-26T01:44:22.705Z,1009.81
2019-05-26T01:45:32.644Z,1009.8
2019-05-26T01:46:42.431Z,1009.81
2019-05-26T01:47:52.381Z,1009.84
2019-05-26T01:49:02.090Z,1009.8
2019-05-26T01:50:11.795Z,1009.78
2019-05-26T01:51:21.495Z,1009.82
2019-05-26T01:52:31.466Z,1009.8
2019-05-26T01:53:41.226Z,1009.81
2019-05-26T01:54:51.183Z,1009.8
2019-05-26T01:56:01.193Z,1009.81
2019-05-26T01:57:10.637Z,1009.77
2019-05-26T01:58:20.103Z,1009.8
2019-05-26T01:59:29.821Z,1009.79
2019-05-26T02:00:39.787Z,1009.79
2019-05-26T02:01:49.781Z,1009.81
2019-05-26T02:03:03.855Z,1009.74
2019-05-26T02:04:13.317Z,1009.74
2019-05-26T02:05:23.026Z,1009.77
2019-05-26T02:06:32.983Z,1009.79
2019-05-26T02:07:42.169Z,1009.84
2019-05-26T02:08:51.863Z,1009.81
2019-05-26T02:10:01.812Z,1009.79
2019-05-26T02:11:11.755Z,1009.78
2019-05-26T02:12:21.721Z,1009.73
2019-05-26T02:13:31.175Z,1009.74
2019-05-26T02:14:40.958Z,1009.72
2019-05-26T02:15:50.929Z,1009.75
2019-05-26T02:17:01.019Z,1009.69
2019-05-26T02:18:10.973Z,1009.68
2019-05-26T02:19:20.928Z,1009.69
2019-05-26T02:20:30.899Z,1009.63
2019-05-26T02:21:40.875Z,1009.7
2019-05-26T02:22:50.840Z,1009.68
2019-05-26T02:24:00.811Z,1009.7
2019-05-26T02:25:10.818Z,1009.75
2019-05-26T02:26:20.552Z,1009.72
2019-05-26T02:27:30.005Z,1009.7
2019-05-26T02:28:39.209Z,1009.73
2019-05-26T02:29:48.983Z,1009.75
2019-05-26T02:30:58.942Z,1009.73
2019-05-26T02:32:08.412Z,1009.7
2019-05-26T02:33:18.376Z,1009.71
2019-05-26T02:34:28.095Z,1009.74
2019-05-26T02:35:38.043Z,1009.7
2019-05-26T02:36:48.006Z,1009.68
2019-05-26T02:37:57.956Z,1009.7
2019-05-26T02:39:07.768Z,1009.68
2019-05-26T02:40:17.723Z,1009.66
2019-05-26T02:41:27.695Z,1009.67
2019-05-26T02:42:37.436Z,1009.68
2019-05-26T02:43:47.421Z,1009.69
2019-05-26T02:44:59.385Z,1009.71
2019-05-26T02:46:09.053Z,1009.74
2019-05-26T02:47:19.055Z,1009.75
2019-05-26T02:48:29.162Z,1009.75
2019-05-26T02:49:39.135Z,1009.75
2019-05-26T02:50:49.098Z,1009.77
2019-05-26T02:51:58.891Z,1009.77
2019-05-26T02:53:08.876Z,1009.77
2019-05-26T02:54:18.336Z,1009.78
2019-05-26T02:55:28.295Z,1009.75
2019-05-26T02:56:38.032Z,1009.78
2019-05-26T02:57:48.032Z,1009.77
2019-05-26T02:58:58.001Z,1009.76
2019-05-26T03:00:07.469Z,1009.76
2019-05-26T03:01:17.197Z,1009.8
2019-05-26T03:02:27.176Z,1009.8
2019-05-26T03:03:37.168Z,1009.8
2019-05-26T03:04:47.217Z,1009.75
2019-05-26T03:05:57.203Z,1009.8
2019-05-26T03:07:07.272Z,1009.8
2019-05-26T03:08:17.317Z,1009.79
2019-05-26T03:09:27.350Z,1009.78
2019-05-26T03:10:37.299Z,1009.8
2019-05-26T03:11:47.249Z,1009.78
2019-05-26T03:12:57.207Z,1009.77
2019-05-26T03:14:06.989Z,1009.77
2019-05-26T03:15:16.869Z,1009.76
2019-05-26T03:16:26.607Z,1009.81
2019-05-26T03:17:36.574Z,1009.79
2019-05-26T03:18:46.293Z,1009.86
2019-05-26T03:19:56.260Z,1009.82
2019-05-26T03:21:05.989Z,1009.83
2019-05-26T03:22:15.971Z,1009.86
2019-05-26T03:23:25.946Z,1009.82
2019-05-26T03:24:35.641Z,1009.77
2019-05-26T03:25:45.336Z,1009.74
2019-05-26T03:26:55.047Z,1009.73
2019-05-26T03:28:04.791Z,1009.78
2019-05-26T03:29:14.765Z,1009.82
2019-05-26T03:30:24.517Z,1009.72
2019-05-26T03:31:34.319Z,1009.74
2019-05-26T03:32:44.341Z,1009.68
2019-05-26T03:33:54.169Z,1009.7
2019-05-26T03:35:03.978Z,1009.7
2019-05-26T03:36:14.181Z,1009.74
2019-05-26T03:37:24.153Z,1009.68
2019-05-26T03:38:34.124Z,1009.7
2019-05-26T03:39:46.090Z,1009.72
2019-05-26T03:40:56.014Z,1009.7
2019-05-26T03:42:05.973Z,1009.75
2019-05-26T03:43:15.701Z,1009.7
2019-05-26T03:44:25.432Z,1009.68
2019-05-26T03:45:35.432Z,1009.72
2019-05-26T03:46:45.459Z,1009.72
2019-05-26T03:47:55.182Z,1009.79
2019-05-26T03:49:05.130Z,1009.76
2019-05-26T03:50:15.095Z,1009.76
2019-05-26T03:51:25.087Z,1009.78
2019-05-26T03:52:35.105Z,1009.71
2019-05-26T03:53:44.882Z,1009.76
2019-05-26T03:54:54.853Z,1009.77
2019-05-26T03:56:04.807Z,1009.78
2019-05-26T03:57:14.814Z,1009.77
2019-05-26T03:58:24.541Z,1009.78
2019-05-26T03:59:34.510Z,1009.81
2019-05-26T04:00:44.569Z,1009.81
2019-05-26T04:01:57.422Z,1009.75
2019-05-26T04:03:07.305Z,1009.74
2019-05-26T04:04:17.005Z,1009.75
2019-05-26T04:05:26.974Z,1009.73
2019-05-26T04:06:36.986Z,1009.74
2019-05-26T04:07:46.712Z,1009.75
2019-05-26T04:08:55.970Z,1009.77
2019-05-26T04:10:06.358Z,1009.74
2019-05-26T04:11:16.186Z,1009.7
2019-05-26T04:12:26.175Z,1009.72
2019-05-26T04:13:36.197Z,1009.77
2019-05-26T04:14:46.170Z,1009.74
2019-05-26T04:15:55.875Z,1009.76
2019-05-26T04:17:05.628Z,1009.78
2019-05-26T04:18:15.589Z,1009.75
2019-05-26T04:19:25.581Z,1009.73
2019-05-26T04:20:35.306Z,1009.81
2019-05-26T04:21:48.689Z,1009.79
2019-05-26T04:22:58.456Z,1009.77
2019-05-26T04:24:08.186Z,1009.78
2019-05-26T04:25:17.889Z,1009.81
2019-05-26T04:26:27.602Z,1009.74
2019-05-26T04:27:37.611Z,1009.68
2019-05-26T04:28:47.328Z,1009.74
2019-05-26T04:29:57.300Z,1009.76
2019-05-26T04:31:07.348Z,1009.88
2019-05-26T04:32:17.068Z,1009.69
2019-05-26T04:33:26.773Z,1009.74
2019-05-26T04:34:36.761Z,1009.69
2019-05-26T04:35:46.746Z,1009.69
2019-05-26T04:36:56.738Z,1009.66
2019-05-26T04:38:06.732Z,1009.62
2019-05-26T04:39:16.701Z,1009.63
2019-05-26T04:40:27.934Z,1009.63
2019-05-26T04:41:38.079Z,1009.58
2019-05-26T04:42:48.060Z,1009.6
2019-05-26T04:43:57.757Z,1009.63
2019-05-26T04:45:07.721Z,1009.65
2019-05-26T04:46:17.473Z,1009.56
2019-05-26T04:47:27.455Z,1009.63
2019-05-26T04:48:37.418Z,1009.53
2019-05-26T04:49:47.444Z,1009.55
2019-05-26T04:50:57.435Z,1009.55
2019-05-26T04:52:07.427Z,1009.53
2019-05-26T04:53:17.132Z,1009.53
2019-05-26T04:54:27.132Z,1009.57
2019-05-26T04:55:37.135Z,1009.58
2019-05-26T04:56:47.193Z,1009.53
2019-05-26T04:57:57.175Z,1009.65
2019-05-26T04:59:06.892Z,1009.57
2019-05-26T05:00:16.834Z,1009.57
2019-05-26T05:01:26.804Z,1009.55
2019-05-26T05:02:36.514Z,1009.57
2019-05-26T05:03:46.487Z,1009.57
2019-05-26T05:04:56.200Z,1009.54
2019-05-26T05:06:05.921Z,1009.58
2019-05-26T05:07:15.883Z,1009.57
2019-05-26T05:08:28.955Z,1009.59
2019-05-26T05:09:38.932Z,1009.58
2019-05-26T05:10:48.878Z,1009.56
2019-05-26T05:11:58.836Z,1009.57
2019-05-26T05:13:08.794Z,1009.55
2019-05-26T05:14:18.502Z,1009.56
2019-05-26T05:15:28.202Z,1009.59
2019-05-26T05:16:38.147Z,1009.57
2019-05-26T05:17:48.095Z,1009.56
2019-05-26T05:18:58.044Z,1009.56
2019-05-26T05:20:07.742Z,1009.5
2019-05-26T05:21:17.470Z,1009.49
2019-05-26T05:22:27.404Z,1009.49
2019-05-26T05:23:37.383Z,1009.47
2019-05-26T05:24:47.342Z,1009.46
2019-05-26T05:25:57.306Z,1009.41
2019-05-26T05:27:07.010Z,1009.42
2019-05-26T05:28:16.972Z,1009.43
2019-05-26T05:29:26.672Z,1009.4
2019-05-26T05:30:36.655Z,1009.38
2019-05-26T05:31:46.356Z,1009.41
2019-05-26T05:32:56.059Z,1009.44
2019-05-26T05:34:05.778Z,1009.37
2019-05-26T05:35:15.244Z,1009.38
2019-05-26T05:36:25.288Z,1009.42
2019-05-26T05:37:34.746Z,1009.45
2019-05-26T05:38:44.196Z,1009.4
2019-05-26T05:39:53.892Z,1009.42
2019-05-26T05:41:03.857Z,1009.44
2019-05-26T05:42:13.573Z,1009.42
2019-05-26T05:43:23.263Z,1009.45
2019-05-26T05:44:32.977Z,1009.4
2019-05-26T05:45:42.932Z,1009.4
2019-05-26T05:46:52.905Z,1009.36
2019-05-26T05:48:02.618Z,1009.4
2019-05-26T05:49:12.572Z,1009.36
2019-05-26T05:50:22.328Z,1009.33
2019-05-26T05:51:32.279Z,1009.27
2019-05-26T05:52:41.987Z,1009.33
2019-05-26T05:53:51.950Z,1009.34
2019-05-26T05:55:01.918Z,1009.31
2019-05-26T05:56:11.874Z,1009.27
2019-05-26T05:57:21.576Z,1009.32
2019-05-26T05:58:31.529Z,1009.29
2019-05-26T05:59:41.255Z,1009.26
2019-05-26T06:00:51.234Z,1009.28
2019-05-26T06:02:01.214Z,1009.25
2019-05-26T06:03:10.954Z,1009.26
2019-05-26T06:04:23.952Z,1009.24
2019-05-26T06:05:33.914Z,1009.23
2019-05-26T06:06:43.623Z,1009.26
2019-05-26T06:07:53.336Z,1009.25
2019-05-26T06:09:03.288Z,1009.26
2019-05-26T06:10:13.260Z,1009.21
2019-05-26T06:11:22.955Z,1009.21
2019-05-26T06:12:32.658Z,1009.2
2019-05-26T06:13:42.607Z,1009.19
2019-05-26T06:14:52.685Z,1009.12
2019-05-26T06:16:02.783Z,1009.15
2019-05-26T06:17:12.548Z,1009.16
2019-05-26T06:18:22.248Z,1009.11
2019-05-26T06:19:32.213Z,1009.12
2019-05-26T06:20:41.912Z,1009.08
2019-05-26T06:21:51.865Z,1009.11
2019-05-26T06:23:01.826Z,1009.07
2019-05-26T06:24:11.534Z,1009.07
2019-05-26T06:25:21.230Z,1009.13
2019-05-26T06:26:31.054Z,1009.1
2019-05-26T06:27:40.753Z,1009.07
2019-05-26T06:28:52.398Z,1009.1
2019-05-26T06:30:02.405Z,1009.08
2019-05-26T06:31:12.110Z,1009.12
2019-05-26T06:32:22.107Z,1009.12
2019-05-26T06:33:31.796Z,1009.09
2019-05-26T06:34:41.490Z,1009.13
2019-05-26T06:35:51.458Z,1009.11
2019-05-26T06:37:01.197Z,1009.14
2019-05-26T06:38:11.175Z,1009.09
2019-05-26T06:39:21.211Z,1009.11
2019-05-26T06:40:31.178Z,1009.11
2019-05-26T06:41:41.118Z,1009.07
2019-05-26T06:42:50.828Z,1009.03
2019-05-26T06:44:00.781Z,1009.06
2019-05-26T06:45:10.252Z,1009.03
2019-05-26T06:46:20.205Z,1009.05
2019-05-26T06:47:29.665Z,1009.07
2019-05-26T06:48:39.367Z,1009.02
2019-05-26T06:49:49.327Z,1009.06
2019-05-26T06:50:59.279Z,1009.05
2019-05-26T06:52:08.990Z,1008.99
2019-05-26T06:53:18.954Z,1008.99
2019-05-26T06:54:28.648Z,1009.06
2019-05-26T06:55:38.592Z,1008.96
2019-05-26T06:56:48.311Z,1009.02
2019-05-26T06:57:58.043Z,1008.95
2019-05-26T06:59:08.015Z,1009.04
2019-05-26T07:00:17.715Z,1008.98
2019-05-26T07:01:27.665Z,1008.93
2019-05-26T07:02:37.694Z,1009.03
2019-05-26T07:03:47.654Z,1008.99
2019-05-26T07:04:57.689Z,1009.01
2019-05-26T07:06:07.166Z,1008.97
2019-05-26T07:07:16.640Z,1009.05
2019-05-26T07:08:26.615Z,1009.07
2019-05-26T07:09:36.643Z,1008.92
2019-05-26T07:10:46.118Z,1009.05
2019-05-26T07:12:00.077Z,1009.04
2019-05-26T07:13:10.397Z,1009.05
2019-05-26T07:14:20.349Z,1008.91
2019-05-26T07:15:30.308Z,1008.92
2019-05-26T07:16:40.009Z,1008.93
2019-05-26T07:17:49.728Z,1008.85
2019-05-26T07:18:59.443Z,1008.9
2019-05-26T07:20:09.375Z,1008.99
2019-05-26T07:21:19.403Z,1008.86
2019-05-26T07:22:29.357Z,1008.85
2019-05-26T07:23:39.081Z,1008.89
2019-05-26T07:24:48.773Z,1008.81
2019-05-26T07:25:58.491Z,1008.92
2019-05-26T07:27:08.446Z,1008.75
2019-05-26T07:28:18.173Z,1008.77
2019-05-26T07:29:27.925Z,1008.89
2019-05-26T07:30:37.891Z,1008.69
2019-05-26T07:31:47.609Z,1008.74
2019-05-26T07:32:57.310Z,1008.69
2019-05-26T07:34:07.275Z,1008.68
2019-05-26T07:35:17.242Z,1008.75
2019-05-26T07:36:26.966Z,1008.66
2019-05-26T07:37:36.915Z,1008.72
2019-05-26T07:38:46.633Z,1008.7
2019-05-26T07:39:56.669Z,1008.73
2019-05-26T07:41:06.630Z,1008.76
2019-05-26T07:42:16.618Z,1008.71
2019-05-26T07:43:28.078Z,1008.67
2019-05-26T07:44:38.237Z,1008.74
2019-05-26T07:45:48.251Z,1008.68
2019-05-26T07:46:58.049Z,1008.63
2019-05-26T07:48:08.024Z,1008.58
2019-05-26T07:49:17.740Z,1008.61
2019-05-26T07:50:27.199Z,1008.59
2019-05-26T07:51:37.155Z,1008.53
2019-05-26T07:52:46.908Z,1008.51
2019-05-26T07:53:56.877Z,1008.65
2019-05-26T07:55:07.033Z,1008.58
2019-05-26T07:56:16.997Z,1008.57
2019-05-26T07:57:26.954Z,1008.51
2019-05-26T07:58:36.935Z,1008.52
2019-05-26T07:59:46.885Z,1008.59
2019-05-26T08:00:56.663Z,1008.69
2019-05-26T08:02:06.129Z,1008.65
2019-05-26T08:03:15.601Z,1008.65
2019-05-26T08:04:25.317Z,1008.55
2019-05-26T08:05:34.777Z,1008.56
2019-05-26T08:06:44.733Z,1008.61
2019-05-26T08:08:09.546Z,1008.64
2019-05-26T08:09:21.569Z,1008.58
2019-05-26T08:10:31.604Z,1008.57
2019-05-26T08:11:41.558Z,1008.61
2019-05-26T08:12:51.284Z,1008.59
2019-05-26T08:14:00.993Z,1008.54
2019-05-26T08:15:10.979Z,1008.59
2019-05-26T08:16:20.940Z,1008.55
2019-05-26T08:17:30.429Z,1008.77
2019-05-26T08:18:40.425Z,1008.63
2019-05-26T08:19:50.141Z,1008.65
2019-05-26T08:21:00.095Z,1008.63
2019-05-26T08:22:10.067Z,1008.65
2019-05-26T08:23:19.833Z,1008.5
2019-05-26T08:24:29.799Z,1008.56
2019-05-26T08:25:39.747Z,1008.55
2019-05-26T08:26:49.976Z,1008.57
2019-05-26T08:27:59.932Z,1008.52
2019-05-26T08:29:09.645Z,1008.58
2019-05-26T08:30:19.606Z,1008.59
2019-05-26T08:31:29.316Z,1008.45
2019-05-26T08:32:39.268Z,1008.52
2019-05-26T08:33:49.222Z,1008.31
2019-05-26T08:34:59.176Z,1008.39
2019-05-26T08:36:09.159Z,1008.3
2019-05-26T08:37:19.149Z,1008.33
2019-05-26T08:38:29.130Z,1008.28
2019-05-26T08:39:38.830Z,1008.36
2019-05-26T08:40:51.213Z,1008.3
2019-05-26T08:42:01.178Z,1008.27
2019-05-26T08:43:26.657Z,1008.2
2019-05-26T08:44:36.627Z,1008.25
2019-05-26T08:45:46.582Z,1008.2
2019-05-26T08:46:56.297Z,1008.15
2019-05-26T08:48:06.002Z,1008.2
2019-05-26T08:49:15.970Z,1008.26
2019-05-26T08:50:25.680Z,1008.36
2019-05-26T08:51:39.437Z,1008.12
2019-05-26T08:52:49.397Z,1008.09
2019-05-26T08:53:59.141Z,1008.09
2019-05-26T08:55:09.093Z,1008.08
2019-05-26T08:56:18.549Z,1008.01
2019-05-26T08:57:28.257Z,1007.92
2019-05-26T08:58:37.959Z,1008.22
2019-05-26T08:59:47.417Z,1008.19
2019-05-26T09:00:57.116Z,1008.04
2019-05-26T09:02:06.878Z,1008.08
2019-05-26T09:03:16.583Z,1007.97
2019-05-26T09:04:26.560Z,1007.92
2019-05-26T09:05:36.522Z,1008
2019-05-26T09:06:46.511Z,1007.99
2019-05-26T09:07:56.243Z,1007.84
2019-05-26T09:09:08.655Z,1007.97
2019-05-26T09:10:18.622Z,1007.92
2019-05-26T09:11:28.587Z,1007.86
2019-05-26T09:12:38.595Z,1008.05
2019-05-26T09:14:02.939Z,1007.87
2019-05-26T09:15:12.886Z,1007.86
2019-05-26T09:16:22.844Z,1007.81
2019-05-26T09:17:32.576Z,1007.8
2019-05-26T09:18:42.576Z,1007.78
2019-05-26T09:19:52.039Z,1007.73
2019-05-26T09:21:02.028Z,1007.76
2019-05-26T09:22:11.748Z,1007.67
2019-05-26T09:23:21.705Z,1007.67
2019-05-26T09:24:31.672Z,1007.73
2019-05-26T09:25:41.638Z,1007.63
2019-05-26T09:26:53.946Z,1007.71
2019-05-26T09:28:03.956Z,1007.78
2019-05-26T09:29:13.928Z,1007.7
2019-05-26T09:30:23.891Z,1007.76
2019-05-26T09:31:34.308Z,1007.8
2019-05-26T09:32:44.356Z,1007.7
2019-05-26T09:33:54.313Z,1007.8
2019-05-26T09:35:04.294Z,1007.73
2019-05-26T09:36:14.057Z,1007.59
2019-05-26T09:37:24.020Z,1007.59
2019-05-26T09:38:33.982Z,1007.6
2019-05-26T09:39:43.954Z,1007.65
2019-05-26T09:40:53.941Z,1007.67
2019-05-26T09:42:03.930Z,1007.67
2019-05-26T09:43:16.357Z,1007.61
2019-05-26T09:44:26.712Z,1007.57
2019-05-26T09:45:36.183Z,1007.54
2019-05-26T09:46:45.919Z,1007.46
2019-05-26T09:47:55.946Z,1007.58
2019-05-26T09:49:05.659Z,1007.74
2019-05-26T09:50:15.652Z,1007.51
2019-05-26T09:51:25.615Z,1007.54
2019-05-26T09:52:35.593Z,1007.48
2019-05-26T09:53:59.000Z,1007.49
2019-05-26T09:55:13.267Z,1007.46
2019-05-26T09:56:23.240Z,1007.67
2019-05-26T09:57:32.952Z,1007.6
2019-05-26T09:58:42.681Z,1007.52
2019-05-26T09:59:52.640Z,1007.56
2019-05-26T10:01:02.635Z,1007.39
2019-05-26T10:02:12.671Z,1007.32
2019-05-26T10:03:22.619Z,1007.36
2019-05-26T10:04:32.358Z,1007.36
2019-05-26T10:05:42.123Z,1007.37
2019-05-26T10:06:52.081Z,1007.35
2019-05-26T10:08:02.043Z,1007.35
2019-05-26T10:09:11.742Z,1007.36
2019-05-26T10:10:21.703Z,1007.23
2019-05-26T10:11:31.429Z,1007.27
2019-05-26T10:12:40.892Z,1007.22
2019-05-26T10:13:50.870Z,1007.19
2019-05-26T10:15:00.846Z,1007.24
2019-05-26T10:16:10.808Z,1007.27
2019-05-26T10:17:23.127Z,1007.23
2019-05-26T10:18:33.289Z,1007.3
2019-05-26T10:19:43.238Z,1007.24
2019-05-26T10:20:53.318Z,1007.37
2019-05-26T10:22:03.401Z,1007.15
2019-05-26T10:23:13.116Z,1007.29
2019-05-26T10:24:22.859Z,1007.18
2019-05-26T10:25:32.828Z,1007.31
2019-05-26T10:26:42.593Z,1007.27
2019-05-26T10:27:52.567Z,1007.36
2019-05-26T10:29:02.024Z,1007.21
2019-05-26T10:30:11.994Z,1007.14
2019-05-26T10:31:21.971Z,1007.22
2019-05-26T10:32:31.958Z,1007.24
2019-05-26T10:33:41.697Z,1007.39
2019-05-26T10:34:51.403Z,1007.11
2019-05-26T10:36:01.120Z,1007.07
2019-05-26T10:37:11.115Z,1007.18
2019-05-26T10:38:21.111Z,1007.13
2019-05-26T10:39:31.069Z,1007.02
2019-05-26T10:40:41.014Z,1007.13
2019-05-26T10:41:51.198Z,1007.07
2019-05-26T10:43:01.322Z,1007.1
2019-05-26T10:44:11.294Z,1007.24
2019-05-26T10:45:21.252Z,1007.09
2019-05-26T10:46:34.721Z,1007.2
2019-05-26T10:47:44.431Z,1007.08
2019-05-26T10:48:54.384Z,1007.03
2019-05-26T10:50:04.367Z,1007.01
2019-05-26T10:51:13.819Z,1007.14
2019-05-26T10:52:23.526Z,1007.14
2019-05-26T10:53:33.247Z,1006.99
2019-05-26T10:54:42.957Z,1006.93
2019-05-26T10:55:52.990Z,1006.98
2019-05-26T10:57:02.725Z,1006.96
2019-05-26T10:58:12.673Z,1006.94
2019-05-26T10:59:22.127Z,1006.88
2019-05-26T11:00:34.043Z,1006.86
2019-05-26T11:01:44.003Z,1006.78
2019-05-26T11:02:53.469Z,1006.86
2019-05-26T11:04:03.579Z,1006.8
2019-05-26T11:05:13.285Z,1006.74
2019-05-26T11:06:22.994Z,1006.68
2019-05-26T11:07:32.750Z,1006.68
2019-05-26T11:08:42.721Z,1006.7
2019-05-26T11:09:52.174Z,1006.69
2019-05-26T11:11:01.899Z,1006.71
2019-05-26T11:12:11.855Z,1006.65
2019-05-26T11:13:21.805Z,1006.63
2019-05-26T11:14:31.760Z,1006.63
2019-05-26T11:15:41.729Z,1006.54
2019-05-26T11:16:51.687Z,1006.72
2019-05-26T11:18:01.644Z,1006.66
2019-05-26T11:19:11.370Z,1006.53
2019-05-26T11:20:21.326Z,1006.65
2019-05-26T11:21:31.296Z,1006.57
2019-05-26T11:22:41.321Z,1006.45
2019-05-26T11:23:51.053Z,1006.43
2019-05-26T11:25:01.015Z,1006.51
2019-05-26T11:26:10.986Z,1006.56
2019-05-26T11:27:20.948Z,1006.42
2019-05-26T11:28:30.404Z,1006.51
2019-05-26T11:29:39.886Z,1006.49
2019-05-26T11:30:49.839Z,1006.43
2019-05-26T11:31:59.552Z,1006.44
2019-05-26T11:33:09.307Z,1006.44
2019-05-26T11:34:19.014Z,1006.4
2019-05-26T11:35:28.720Z,1006.49
2019-05-26T11:36:38.693Z,1006.42
2019-05-26T11:37:48.712Z,1006.4
2019-05-26T11:38:58.673Z,1006.66
2019-05-26T11:40:08.625Z,1006.72
2019-05-26T11:41:18.594Z,1006.33
2019-05-26T11:42:28.312Z,1006.35
2019-05-26T11:43:38.029Z,1006.5
2019-05-26T11:44:48.006Z,1006.33
2019-05-26T11:45:57.979Z,1006.56
2019-05-26T11:47:07.952Z,1006.3
2019-05-26T11:48:17.902Z,1006.43
2019-05-26T11:49:27.859Z,1006.4
2019-05-26T11:50:37.891Z,1006.28
2019-05-26T11:51:47.862Z,1006.29
2019-05-26T11:52:57.810Z,1006.23
2019-05-26T11:54:07.536Z,1006.54
2019-05-26T11:55:17.510Z,1006.25
2019-05-26T11:56:30.726Z,1006.48
2019-05-26T11:57:40.417Z,1006.11
2019-05-26T11:58:50.382Z,1006.16
2019-05-26T12:00:00.453Z,1006.16
2019-05-26T12:01:12.384Z,1006.11
2019-05-26T12:02:25.718Z,1006.15
2019-05-26T12:03:35.434Z,1006.19
2019-05-26T12:04:45.429Z,1006.34
2019-05-26T12:05:55.149Z,1006.05
2019-05-26T12:07:05.128Z,1006.06
2019-05-26T12:08:14.902Z,1005.96
2019-05-26T12:09:24.863Z,1006.4
2019-05-26T12:10:34.818Z,1006.2
2019-05-26T12:11:44.772Z,1006.16
2019-05-26T12:12:54.493Z,1006.23
2019-05-26T12:14:04.538Z,1006.01
2019-05-26T12:15:14.512Z,1005.92
2019-05-26T12:16:24.226Z,1005.94
2019-05-26T12:17:36.543Z,1006.07
2019-05-26T12:18:46.508Z,1005.97
2019-05-26T12:19:55.795Z,1006.29
2019-05-26T12:21:08.031Z,1005.87
2019-05-26T12:22:18.017Z,1005.94
2019-05-26T12:23:27.973Z,1005.97
2019-05-26T12:24:37.943Z,1006.1
2019-05-26T12:25:47.663Z,1005.93
2019-05-26T12:26:57.132Z,1005.91
2019-05-26T12:28:07.117Z,1005.94
2019-05-26T12:29:17.105Z,1005.92
2019-05-26T12:30:27.127Z,1005.91
2019-05-26T12:31:36.842Z,1006.03
2019-05-26T12:32:47.016Z,1006.01
2019-05-26T12:33:57.019Z,1005.99
2019-05-26T12:35:06.998Z,1005.98
2019-05-26T12:36:16.968Z,1006.07
2019-05-26T12:37:26.691Z,1005.95
2019-05-26T12:38:36.417Z,1005.88
2019-05-26T12:39:45.874Z,1005.89
2019-05-26T12:40:55.830Z,1005.79
2019-05-26T12:42:05.797Z,1005.95
2019-05-26T12:43:17.697Z,1005.81
2019-05-26T12:44:27.425Z,1005.9
2019-05-26T12:45:51.487Z,1005.8
2019-05-26T12:47:01.217Z,1005.79
2019-05-26T12:48:11.174Z,1005.8
2019-05-26T12:49:21.172Z,1005.82
2019-05-26T12:50:35.370Z,1005.93
2019-05-26T12:51:45.096Z,1005.78
2019-05-26T12:52:55.054Z,1005.8
2019-05-26T12:54:04.757Z,1005.84
2019-05-26T12:55:14.479Z,1005.86
2019-05-26T12:56:24.208Z,1005.65
2019-05-26T12:57:34.170Z,1005.76
2019-05-26T12:58:43.901Z,1005.78
2019-05-26T12:59:53.870Z,1005.85
2019-05-26T13:01:03.830Z,1005.69
2019-05-26T13:02:13.828Z,1005.86
2019-05-26T13:03:23.828Z,1005.68
2019-05-26T13:04:33.544Z,1005.96
2019-05-26T13:05:43.297Z,1005.69
2019-05-26T13:06:53.267Z,1005.85
2019-05-26T13:08:03.237Z,1005.64
2019-05-26T13:09:13.191Z,1005.7
2019-05-26T13:10:22.911Z,1005.78
2019-05-26T13:11:32.888Z,1005.89
2019-05-26T13:12:42.633Z,1005.64
2019-05-26T13:13:52.347Z,1005.54
2019-05-26T13:15:05.734Z,1005.74
2019-05-26T13:16:16.169Z,1005.73
2019-05-26T13:17:25.943Z,1005.69
2019-05-26T13:18:35.665Z,1005.86
2019-05-26T13:19:45.373Z,1005.64
2019-05-26T13:20:55.405Z,1005.59
2019-05-26T13:22:05.363Z,1005.61
2019-05-26T13:23:15.072Z,1005.67
2019-05-26T13:24:25.049Z,1005.71
2019-05-26T13:25:34.803Z,1005.67
2019-05-26T13:26:44.775Z,1005.69
2019-05-26T13:27:54.741Z,1005.68
2019-05-26T13:29:04.226Z,1005.58
2019-05-26T13:30:13.951Z,1005.54
2019-05-26T13:31:23.677Z,1005.57
2019-05-26T13:32:33.394Z,1005.55
2019-05-26T13:33:43.100Z,1005.5
2019-05-26T13:34:52.575Z,1005.65
2019-05-26T13:36:02.047Z,1005.55
2019-05-26T13:37:12.047Z,1005.6
2019-05-26T13:38:22.007Z,1005.77
2019-05-26T13:39:31.987Z,1005.48
2019-05-26T13:40:41.714Z,1005.48
2019-05-26T13:41:51.659Z,1005.57
2019-05-26T13:43:01.392Z,1005.56
2019-05-26T13:44:11.370Z,1005.57
2019-05-26T13:45:23.072Z,1005.84
2019-05-26T13:46:36.719Z,1005.58
2019-05-26T13:47:46.676Z,1005.52
2019-05-26T13:48:56.135Z,1005.63
2019-05-26T13:50:05.821Z,1005.72
2019-05-26T13:51:15.571Z,1005.5
2019-05-26T13:52:25.541Z,1005.56
2019-05-26T13:53:35.578Z,1005.55
2019-05-26T13:54:45.279Z,1005.6
2019-05-26T13:55:55.256Z,1005.56
2019-05-26T13:57:05.223Z,1005.5
2019-05-26T13:58:15.194Z,1005.53
2019-05-26T13:59:25.184Z,1005.53
2019-05-26T14:00:35.144Z,1005.48
2019-05-26T14:01:45.091Z,1005.4
2019-05-26T14:02:54.790Z,1005.46
2019-05-26T14:04:04.617Z,1005.49
2019-05-26T14:05:14.578Z,1005.46
2019-05-26T14:06:24.547Z,1005.36
2019-05-26T14:07:34.259Z,1005.42
2019-05-26T14:08:44.230Z,1005.42
2019-05-26T14:09:54.177Z,1005.43
2019-05-26T14:11:03.895Z,1005.39